sensor_id;sensor_type;location;lat;lon;timestamp;P1;durP1;ratioP1;P2;durP2;ratioP2
19560;SDS011;9927;47.792;10.616;2024-02-26T04:00:31;3.90;;;3.80;;
19560;SDS011;9927;47.792;10.616;2024-02-26T04:02:58;3.70;;;3.60;;
19560;SDS011;9927;47.792;10.616;2024-02-26T04:05:26;3.70;;;3.60;;
19560;SDS011;9927;47.792;10.616;2024-02-26T04:07:53;4.37;;;3.80;;
19560;SDS011;9927;47.792;10.616;2024-02-26T04:10:20;3.67;;;3.47;;
19560;SDS011;9927;47.792;10.616;2024-02-26T04:12:48;3.30;;;3.20;;
19560;SDS011;9927;47.792;10.616;2024-02-26T04:15:16;3.50;;;3.40;;
19560;SDS011;9927;47.792;10.616;2024-02-26T04:17:43;3.77;;;3.60;;
19560;SDS011;9927;47.792;10.616;2024-02-26T04:20:15;3.80;;;3.60;;
19560;SDS011;9927;47.792;10.616;2024-02-26T04:22:43;3.77;;;3.67;;
19560;SDS011;9927;47.792;10.616;2024-02-26T04:25:11;3.57;;;3.47;;
19560;SDS011;9927;47.792;10.616;2024-02-26T04:27:38;3.57;;;3.47;;
19560;SDS011;9927;47.792;10.616;2024-02-26T04:30:06;3.60;;;3.50;;
19560;SDS011;9927;47.792;10.616;2024-02-26T04:32:34;3.47;;;3.37;;
19560;SDS011;9927;47.792;10.616;2024-02-26T04:35:02;3.93;;;3.63;;
19560;SDS011;9927;47.792;10.616;2024-02-26T04:37:29;3.40;;;3.30;;
19560;SDS011;9927;47.792;10.616;2024-02-26T04:39:58;3.50;;;3.40;;
19560;SDS011;9927;47.792;10.616;2024-02-26T04:42:26;3.90;;;3.73;;
19560;SDS011;9927;47.792;10.616;2024-02-26T04:44:54;3.50;;;3.40;;
19560;SDS011;9927;47.792;10.616;2024-02-26T04:47:22;3.50;;;3.40;;
19560;SDS011;9927;47.792;10.616;2024-02-26T04:49:50;3.70;;;3.60;;
19560;SDS011;9927;47.792;10.616;2024-02-26T04:52:18;3.43;;;3.33;;
19560;SDS011;9927;47.792;10.616;2024-02-26T04:54:45;3.53;;;3.40;;
19560;SDS011;9927;47.792;10.616;2024-02-26T04:57:12;3.50;;;3.40;;
19560;SDS011;9927;47.792;10.616;2024-02-26T04:59:40;3.70;;;3.50;;
19560;SDS011;9927;47.792;10.616;2024-02-26T05:02:09;3.90;;;3.80;;
19560;SDS011;9927;47.792;10.616;2024-02-26T05:04:37;4.17;;;4.00;;
19560;SDS011;9927;47.792;10.616;2024-02-26T05:07:04;4.43;;;4.13;;
19560;SDS011;9927;47.792;10.616;2024-02-26T05:09:31;4.70;;;4.40;;
19560;SDS011;9927;47.792;10.616;2024-02-26T05:11:59;4.00;;;3.87;;
19560;SDS011;9927;47.792;10.616;2024-02-26T05:14:26;4.10;;;3.90;;
19560;SDS011;9927;47.792;10.616;2024-02-26T05:16:54;4.50;;;4.20;;
19560;SDS011;9927;47.792;10.616;2024-02-26T05:19:21;4.17;;;3.87;;
19560;SDS011;9927;47.792;10.616;2024-02-26T05:21:49;4.13;;;3.87;;
19560;SDS011;9927;47.792;10.616;2024-02-26T05:24:17;3.77;;;3.67;;
19560;SDS011;9927;47.792;10.616;2024-02-26T05:26:45;3.90;;;3.80;;
19560;SDS011;9927;47.792;10.616;2024-02-26T05:29:12;4.10;;;3.80;;
19560;SDS011;9927;47.792;10.616;2024-02-26T05:31:42;4.20;;;4.00;;
19560;SDS011;9927;47.792;10.616;2024-02-26T05:34:09;3.83;;;3.63;;
19560;SDS011;9927;47.792;10.616;2024-02-26T05:36:36;4.50;;;4.20;;
19560;SDS011;9927;47.792;10.616;2024-02-26T05:39:04;4.60;;;4.30;;
19560;SDS011;9927;47.792;10.616;2024-02-26T05:41:31;5.00;;;4.60;;
19560;SDS011;9927;47.792;10.616;2024-02-26T05:43:59;5.30;;;4.90;;
19560;SDS011;9927;47.792;10.616;2024-02-26T05:46:27;5.90;;;5.30;;
19560;SDS011;9927;47.792;10.616;2024-02-26T05:48:54;7.60;;;5.87;;
19560;SDS011;9927;47.792;10.616;2024-02-26T05:51:21;8.23;;;6.03;;
19560;SDS011;9927;47.792;10.616;2024-02-26T05:53:49;5.27;;;4.87;;
19560;SDS011;9927;47.792;10.616;2024-02-26T05:56:22;6.37;;;5.40;;
19560;SDS011;9927;47.792;10.616;2024-02-26T05:58:49;5.40;;;5.00;;
19560;SDS011;9927;47.792;10.616;2024-02-26T06:01:17;5.40;;;4.80;;
19560;SDS011;9927;47.792;10.616;2024-02-26T06:03:44;7.53;;;4.33;;
19560;SDS011;9927;47.792;10.616;2024-02-26T06:06:12;6.10;;;4.17;;
19560;SDS011;9927;47.792;10.616;2024-02-26T06:08:42;8.53;;;4.20;;
19560;SDS011;9927;47.792;10.616;2024-02-26T06:11:09;5.27;;;3.90;;
19560;SDS011;9927;47.792;10.616;2024-02-26T06:13:37;4.27;;;3.87;;
19560;SDS011;9927;47.792;10.616;2024-02-26T06:16:04;4.83;;;4.07;;
19560;SDS011;9927;47.792;10.616;2024-02-26T06:18:32;4.20;;;4.00;;
19560;SDS011;9927;47.792;10.616;2024-02-26T06:20:59;4.60;;;4.20;;
19560;SDS011;9927;47.792;10.616;2024-02-26T06:23:27;4.20;;;3.90;;
19560;SDS011;9927;47.792;10.616;2024-02-26T06:25:55;4.40;;;4.00;;
19560;SDS011;9927;47.792;10.616;2024-02-26T06:28:22;3.80;;;3.60;;
19560;SDS011;9927;47.792;10.616;2024-02-26T06:30:50;4.03;;;3.73;;
19560;SDS011;9927;47.792;10.616;2024-02-26T06:33:19;3.97;;;3.77;;
19560;SDS011;9927;47.792;10.616;2024-02-26T06:35:46;4.80;;;4.50;;
19560;SDS011;9927;47.792;10.616;2024-02-26T06:38:14;4.60;;;4.30;;
19560;SDS011;9927;47.792;10.616;2024-02-26T06:40:42;5.00;;;3.93;;
19560;SDS011;9927;47.792;10.616;2024-02-26T06:43:09;4.30;;;4.00;;
19560;SDS011;9927;47.792;10.616;2024-02-26T06:45:36;5.53;;;5.03;;
19560;SDS011;9927;47.792;10.616;2024-02-26T06:48:04;5.80;;;5.30;;
19560;SDS011;9927;47.792;10.616;2024-02-26T06:50:31;5.80;;;5.30;;
19560;SDS011;9927;47.792;10.616;2024-02-26T06:52:59;6.07;;;5.50;;
19560;SDS011;9927;47.792;10.616;2024-02-26T06:55:26;15.67;;;9.37;;
19560;SDS011;9927;47.792;10.616;2024-02-26T06:57:53;13.70;;;9.40;;
19560;SDS011;9927;47.792;10.616;2024-02-26T07:00:20;11.47;;;7.83;;
19560;SDS011;9927;47.792;10.616;2024-02-26T07:02:48;8.53;;;7.70;;
19560;SDS011;9927;47.792;10.616;2024-02-26T07:05:15;8.27;;;6.70;;
19560;SDS011;9927;47.792;10.616;2024-02-26T07:07:42;6.00;;;5.40;;
19560;SDS011;9927;47.792;10.616;2024-02-26T07:10:10;8.03;;;6.13;;
19560;SDS011;9927;47.792;10.616;2024-02-26T07:12:39;6.57;;;4.80;;
19560;SDS011;9927;47.792;10.616;2024-02-26T07:15:06;6.43;;;5.50;;
19560;SDS011;9927;47.792;10.616;2024-02-26T07:17:35;8.57;;;5.87;;
19560;SDS011;9927;47.792;10.616;2024-02-26T07:20:02;6.97;;;5.70;;
19560;SDS011;9927;47.792;10.616;2024-02-26T07:22:36;6.00;;;5.40;;
19560;SDS011;9927;47.792;10.616;2024-02-26T07:25:03;5.53;;;5.03;;
19560;SDS011;9927;47.792;10.616;2024-02-26T07:27:30;6.67;;;5.37;;
19560;SDS011;9927;47.792;10.616;2024-02-26T07:29:58;8.57;;;5.70;;
19560;SDS011;9927;47.792;10.616;2024-02-26T07:32:25;5.13;;;4.70;;
19560;SDS011;9927;47.792;10.616;2024-02-26T07:34:52;4.77;;;4.13;;
19560;SDS011;9927;47.792;10.616;2024-02-26T07:37:20;4.37;;;4.00;;
19560;SDS011;9927;47.792;10.616;2024-02-26T07:39:47;4.47;;;4.00;;
19560;SDS011;9927;47.792;10.616;2024-02-26T07:42:14;4.83;;;4.37;;
19560;SDS011;9927;47.792;10.616;2024-02-26T07:44:42;4.63;;;4.30;;
19560;SDS011;9927;47.792;10.616;2024-02-26T07:47:10;4.97;;;4.50;;
19560;SDS011;9927;47.792;10.616;2024-02-26T07:49:37;8.67;;;5.30;;
19560;SDS011;9927;47.792;10.616;2024-02-26T07:52:05;6.03;;;5.43;;
19560;SDS011;9927;47.792;10.616;2024-02-26T07:54:33;7.67;;;5.90;;
19560;SDS011;9927;47.792;10.616;2024-02-26T07:57:00;9.23;;;5.30;;
19560;SDS011;9927;47.792;10.616;2024-02-26T07:59:30;8.77;;;4.60;;
19560;SDS011;9927;47.792;10.616;2024-02-26T08:01:58;7.90;;;4.80;;
19560;SDS011;9927;47.792;10.616;2024-02-26T08:04:26;8.30;;;4.20;;
19560;SDS011;9927;47.792;10.616;2024-02-26T08:06:53;7.57;;;4.37;;
19560;SDS011;9927;47.792;10.616;2024-02-26T08:09:21;5.30;;;4.00;;
19560;SDS011;9927;47.792;10.616;2024-02-26T08:11:48;7.27;;;4.83;;
19560;SDS011;9927;47.792;10.616;2024-02-26T08:14:16;5.90;;;4.07;;
19560;SDS011;9927;47.792;10.616;2024-02-26T08:16:43;7.43;;;4.80;;
19560;SDS011;9927;47.792;10.616;2024-02-26T08:19:10;8.43;;;4.30;;
19560;SDS011;9927;47.792;10.616;2024-02-26T08:21:41;6.47;;;4.10;;
19560;SDS011;9927;47.792;10.616;2024-02-26T08:24:08;5.87;;;4.33;;
19560;SDS011;9927;47.792;10.616;2024-02-26T08:26:36;9.63;;;4.57;;
19560;SDS011;9927;47.792;10.616;2024-02-26T08:29:03;7.73;;;4.67;;
19560;SDS011;9927;47.792;10.616;2024-02-26T08:31:31;8.97;;;4.00;;
19560;SDS011;9927;47.792;10.616;2024-02-26T08:33:58;7.63;;;3.67;;
19560;SDS011;9927;47.792;10.616;2024-02-26T08:36:27;5.90;;;3.67;;
19560;SDS011;9927;47.792;10.616;2024-02-26T08:38:54;8.33;;;3.90;;
19560;SDS011;9927;47.792;10.616;2024-02-26T08:41:22;4.93;;;4.07;;
19560;SDS011;9927;47.792;10.616;2024-02-26T08:43:49;6.37;;;3.70;;
19560;SDS011;9927;47.792;10.616;2024-02-26T08:46:16;7.50;;;4.10;;
19560;SDS011;9927;47.792;10.616;2024-02-26T08:48:44;4.53;;;3.80;;
19560;SDS011;9927;47.792;10.616;2024-02-26T08:51:11;5.20;;;3.67;;
19560;SDS011;9927;47.792;10.616;2024-02-26T08:53:39;13.30;;;3.93;;
19560;SDS011;9927;47.792;10.616;2024-02-26T08:56:10;9.30;;;4.27;;
19560;SDS011;9927;47.792;10.616;2024-02-26T08:58:45;10.97;;;4.43;;
19560;SDS011;9927;47.792;10.616;2024-02-26T09:01:15;10.60;;;3.93;;
19560;SDS011;9927;47.792;10.616;2024-02-26T09:03:43;5.00;;;3.97;;
19560;SDS011;9927;47.792;10.616;2024-02-26T09:06:10;10.98;;;4.35;;
19560;SDS011;9927;47.792;10.616;2024-02-26T09:08:41;6.90;;;3.95;;
19560;SDS011;9927;47.792;10.616;2024-02-26T09:11:08;10.05;;;4.25;;
19560;SDS011;9927;47.792;10.616;2024-02-26T09:13:37;10.87;;;4.23;;
19560;SDS011;9927;47.792;10.616;2024-02-26T09:16:05;8.77;;;4.00;;
19560;SDS011;9927;47.792;10.616;2024-02-26T09:18:32;8.98;;;3.83;;
19560;SDS011;9927;47.792;10.616;2024-02-26T09:21:03;5.03;;;3.30;;
19560;SDS011;9927;47.792;10.616;2024-02-26T09:23:31;6.40;;;3.87;;
19560;SDS011;9927;47.792;10.616;2024-02-26T09:25:59;5.70;;;3.50;;
19560;SDS011;9927;47.792;10.616;2024-02-26T09:28:26;5.60;;;3.60;;
19560;SDS011;9927;47.792;10.616;2024-02-26T09:30:54;5.72;;;3.30;;
19560;SDS011;9927;47.792;10.616;2024-02-26T09:33:21;4.60;;;3.40;;
19560;SDS011;9927;47.792;10.616;2024-02-26T09:35:49;7.70;;;4.00;;
19560;SDS011;9927;47.792;10.616;2024-02-26T09:38:16;9.98;;;4.20;;
19560;SDS011;9927;47.792;10.616;2024-02-26T09:40:43;4.25;;;3.53;;
19560;SDS011;9927;47.792;10.616;2024-02-26T09:43:11;4.45;;;3.83;;
19560;SDS011;9927;47.792;10.616;2024-02-26T09:45:41;5.78;;;4.07;;
19560;SDS011;9927;47.792;10.616;2024-02-26T09:48:09;5.53;;;3.67;;
19560;SDS011;9927;47.792;10.616;2024-02-26T09:50:40;4.45;;;3.97;;
19560;SDS011;9927;47.792;10.616;2024-02-26T09:53:12;6.13;;;4.20;;
19560;SDS011;9927;47.792;10.616;2024-02-26T09:55:41;3.42;;;3.20;;
19560;SDS011;9927;47.792;10.616;2024-02-26T09:58:09;6.78;;;4.10;;
19560;SDS011;9927;47.792;10.616;2024-02-26T10:00:37;11.10;;;3.58;;
19560;SDS011;9927;47.792;10.616;2024-02-26T10:03:09;8.02;;;3.72;;
19560;SDS011;9927;47.792;10.616;2024-02-26T10:05:40;3.70;;;3.27;;
19560;SDS011;9927;47.792;10.616;2024-02-26T10:08:10;3.60;;;3.30;;
19560;SDS011;9927;47.792;10.616;2024-02-26T10:10:39;4.60;;;3.08;;
19560;SDS011;9927;47.792;10.616;2024-02-26T10:13:06;3.22;;;3.03;;
19560;SDS011;9927;47.792;10.616;2024-02-26T10:15:36;6.05;;;3.50;;
19560;SDS011;9927;47.792;10.616;2024-02-26T10:18:05;3.58;;;3.00;;
19560;SDS011;9927;47.792;10.616;2024-02-26T10:20:33;2.70;;;2.60;;
19560;SDS011;9927;47.792;10.616;2024-02-26T10:23:04;3.00;;;2.90;;
19560;SDS011;9927;47.792;10.616;2024-02-26T10:25:35;3.10;;;2.80;;
19560;SDS011;9927;47.792;10.616;2024-02-26T10:28:02;3.08;;;2.97;;
19560;SDS011;9927;47.792;10.616;2024-02-26T10:30:30;3.08;;;2.70;;
19560;SDS011;9927;47.792;10.616;2024-02-26T10:32:58;2.95;;;2.80;;
19560;SDS011;9927;47.792;10.616;2024-02-26T10:35:26;3.13;;;2.92;;
19560;SDS011;9927;47.792;10.616;2024-02-26T10:37:55;2.80;;;2.60;;
19560;SDS011;9927;47.792;10.616;2024-02-26T10:40:22;2.70;;;2.50;;
19560;SDS011;9927;47.792;10.616;2024-02-26T10:42:50;3.00;;;2.50;;
19560;SDS011;9927;47.792;10.616;2024-02-26T10:45:17;2.42;;;2.40;;
19560;SDS011;9927;47.792;10.616;2024-02-26T10:47:45;2.50;;;2.40;;
19560;SDS011;9927;47.792;10.616;2024-02-26T10:50:12;2.35;;;2.30;;
19560;SDS011;9927;47.792;10.616;2024-02-26T10:52:43;2.20;;;2.20;;
19560;SDS011;9927;47.792;10.616;2024-02-26T10:55:16;2.50;;;2.40;;
19560;SDS011;9927;47.792;10.616;2024-02-26T10:57:47;2.30;;;2.20;;
19560;SDS011;9927;47.792;10.616;2024-02-26T11:00:17;2.67;;;2.47;;
19560;SDS011;9927;47.792;10.616;2024-02-26T11:02:45;2.55;;;2.35;;
19560;SDS011;9927;47.792;10.616;2024-02-26T11:05:13;2.47;;;2.38;;
19560;SDS011;9927;47.792;10.616;2024-02-26T11:07:42;2.10;;;2.10;;
19560;SDS011;9927;47.792;10.616;2024-02-26T11:10:11;2.60;;;2.40;;
19560;SDS011;9927;47.792;10.616;2024-02-26T11:12:39;2.40;;;2.40;;
19560;SDS011;9927;47.792;10.616;2024-02-26T11:15:07;2.85;;;2.60;;
19560;SDS011;9927;47.792;10.616;2024-02-26T11:17:36;2.70;;;2.60;;
19560;SDS011;9927;47.792;10.616;2024-02-26T11:20:09;3.30;;;3.00;;
19560;SDS011;9927;47.792;10.616;2024-02-26T11:22:39;3.72;;;2.70;;
19560;SDS011;9927;47.792;10.616;2024-02-26T11:25:07;3.30;;;3.20;;
19560;SDS011;9927;47.792;10.616;2024-02-26T11:27:42;3.00;;;2.90;;
19560;SDS011;9927;47.792;10.616;2024-02-26T11:30:12;5.15;;;3.40;;
19560;SDS011;9927;47.792;10.616;2024-02-26T11:32:43;3.72;;;3.53;;
19560;SDS011;9927;47.792;10.616;2024-02-26T11:35:14;3.50;;;3.20;;
19560;SDS011;9927;47.792;10.616;2024-02-26T11:38:05;3.35;;;3.10;;
19560;SDS011;9927;47.792;10.616;2024-02-26T11:40:33;2.88;;;2.78;;
19560;SDS011;9927;47.792;10.616;2024-02-26T11:43:07;3.40;;;2.88;;
19560;SDS011;9927;47.792;10.616;2024-02-26T11:48:22;3.00;;;2.90;;
19560;SDS011;9927;47.792;10.616;2024-02-26T11:50:51;4.15;;;2.97;;
19560;SDS011;9927;47.792;10.616;2024-02-26T11:58:40;3.42;;;2.97;;
19560;SDS011;9927;47.792;10.616;2024-02-26T12:04:18;4.78;;;3.08;;
19560;SDS011;9927;47.792;10.616;2024-02-26T12:12:06;3.58;;;3.28;;
19560;SDS011;9927;47.792;10.616;2024-02-26T12:14:51;3.15;;;3.05;;
19560;SDS011;9927;47.792;10.616;2024-02-26T12:17:21;2.85;;;2.75;;
19560;SDS011;9927;47.792;10.616;2024-02-26T12:19:50;2.70;;;2.60;;
19560;SDS011;9927;47.792;10.616;2024-02-26T12:22:22;2.50;;;2.40;;
19560;SDS011;9927;47.792;10.616;2024-02-26T12:25:00;2.67;;;2.47;;
19560;SDS011;9927;47.792;10.616;2024-02-26T12:27:29;2.95;;;2.63;;
19560;SDS011;9927;47.792;10.616;2024-02-26T12:29:57;2.60;;;2.50;;
19560;SDS011;9927;47.792;10.616;2024-02-26T12:32:24;2.58;;;2.47;;
19560;SDS011;9927;47.792;10.616;2024-02-26T12:34:52;2.20;;;2.20;;
19560;SDS011;9927;47.792;10.616;2024-02-26T12:37:19;2.70;;;2.50;;
19560;SDS011;9927;47.792;10.616;2024-02-26T12:39:47;2.60;;;2.50;;
19560;SDS011;9927;47.792;10.616;2024-02-26T12:42:14;4.50;;;2.38;;
19560;SDS011;9927;47.792;10.616;2024-02-26T12:44:41;3.53;;;2.78;;
19560;SDS011;9927;47.792;10.616;2024-02-26T12:47:11;5.65;;;2.67;;
19560;SDS011;9927;47.792;10.616;2024-02-26T12:49:43;6.50;;;2.88;;
19560;SDS011;9927;47.792;10.616;2024-02-26T12:52:13;2.47;;;2.30;;
19560;SDS011;9927;47.792;10.616;2024-02-26T12:54:40;2.50;;;2.40;;
19560;SDS011;9927;47.792;10.616;2024-02-26T12:57:09;2.63;;;2.53;;
19560;SDS011;9927;47.792;10.616;2024-02-26T12:59:36;2.70;;;2.60;;
19560;SDS011;9927;47.792;10.616;2024-02-26T13:02:04;2.42;;;2.33;;
19560;SDS011;9927;47.792;10.616;2024-02-26T13:04:34;2.50;;;2.30;;
19560;SDS011;9927;47.792;10.616;2024-02-26T13:07:05;3.00;;;2.72;;
19560;SDS011;9927;47.792;10.616;2024-02-26T13:09:33;2.90;;;2.80;;
19560;SDS011;9927;47.792;10.616;2024-02-26T13:12:07;4.57;;;3.22;;
19560;SDS011;9927;47.792;10.616;2024-02-26T13:14:35;3.83;;;3.53;;
19560;SDS011;9927;47.792;10.616;2024-02-26T13:17:02;8.82;;;3.33;;
19560;SDS011;9927;47.792;10.616;2024-02-26T13:19:30;3.35;;;3.17;;
19560;SDS011;9927;47.792;10.616;2024-02-26T13:22:05;3.35;;;3.15;;
19560;SDS011;9927;47.792;10.616;2024-02-26T13:24:34;3.28;;;3.10;;
19560;SDS011;9927;47.792;10.616;2024-02-26T13:27:02;3.75;;;3.55;;
19560;SDS011;9927;47.792;10.616;2024-02-26T13:29:31;3.50;;;3.20;;
19560;SDS011;9927;47.792;10.616;2024-02-26T13:32:00;3.65;;;3.28;;
19560;SDS011;9927;47.792;10.616;2024-02-26T13:34:27;3.53;;;3.25;;
19560;SDS011;9927;47.792;10.616;2024-02-26T13:36:57;4.90;;;3.20;;
19560;SDS011;9927;47.792;10.616;2024-02-26T13:39:25;3.42;;;3.22;;
19560;SDS011;9927;47.792;10.616;2024-02-26T13:41:54;2.88;;;2.67;;
19560;SDS011;9927;47.792;10.616;2024-02-26T13:44:22;3.05;;;2.95;;
19560;SDS011;9927;47.792;10.616;2024-02-26T13:46:50;1.80;;;1.80;;
19560;SDS011;9927;47.792;10.616;2024-02-26T13:49:17;2.17;;;2.08;;
19560;SDS011;9927;47.792;10.616;2024-02-26T13:51:45;2.10;;;2.00;;
19560;SDS011;9927;47.792;10.616;2024-02-26T13:54:12;2.05;;;1.95;;
19560;SDS011;9927;47.792;10.616;2024-02-26T13:56:41;2.20;;;2.20;;
19560;SDS011;9927;47.792;10.616;2024-02-26T13:59:12;2.10;;;2.10;;
19560;SDS011;9927;47.792;10.616;2024-02-26T14:01:39;1.90;;;1.90;;
19560;SDS011;9927;47.792;10.616;2024-02-26T14:04:06;1.98;;;1.98;;
19560;SDS011;9927;47.792;10.616;2024-02-26T14:06:36;2.00;;;2.00;;
19560;SDS011;9927;47.792;10.616;2024-02-26T14:09:03;2.10;;;2.10;;
19560;SDS011;9927;47.792;10.616;2024-02-26T14:11:31;2.17;;;2.13;;
19560;SDS011;9927;47.792;10.616;2024-02-26T14:13:58;2.00;;;2.00;;
19560;SDS011;9927;47.792;10.616;2024-02-26T14:16:25;2.10;;;2.10;;
19560;SDS011;9927;47.792;10.616;2024-02-26T14:18:56;2.17;;;2.08;;
19560;SDS011;9927;47.792;10.616;2024-02-26T14:21:23;1.90;;;1.90;;
19560;SDS011;9927;47.792;10.616;2024-02-26T14:23:51;2.70;;;2.60;;
19560;SDS011;9927;47.792;10.616;2024-02-26T14:26:19;7.47;;;3.20;;
19560;SDS011;9927;47.792;10.616;2024-02-26T14:28:47;2.72;;;2.40;;
19560;SDS011;9927;47.792;10.616;2024-02-26T14:31:17;2.15;;;2.08;;
19560;SDS011;9927;47.792;10.616;2024-02-26T14:33:44;2.22;;;2.10;;
19560;SDS011;9927;47.792;10.616;2024-02-26T14:36:12;2.10;;;2.00;;
19560;SDS011;9927;47.792;10.616;2024-02-26T14:38:40;2.20;;;2.10;;
19560;SDS011;9927;47.792;10.616;2024-02-26T14:41:07;2.05;;;2.03;;
19560;SDS011;9927;47.792;10.616;2024-02-26T14:43:35;2.20;;;2.10;;
19560;SDS011;9927;47.792;10.616;2024-02-26T14:46:02;2.53;;;2.30;;
19560;SDS011;9927;47.792;10.616;2024-02-26T14:48:30;2.28;;;2.22;;
19560;SDS011;9927;47.792;10.616;2024-02-26T14:50:59;2.33;;;2.20;;
19560;SDS011;9927;47.792;10.616;2024-02-26T14:53:27;5.53;;;2.10;;
19560;SDS011;9927;47.792;10.616;2024-02-26T14:55:54;2.53;;;2.33;;
19560;SDS011;9927;47.792;10.616;2024-02-26T14:58:21;2.15;;;2.10;;
19560;SDS011;9927;47.792;10.616;2024-02-26T15:00:49;2.58;;;2.30;;
19560;SDS011;9927;47.792;10.616;2024-02-26T15:03:18;2.05;;;1.98;;
19560;SDS011;9927;47.792;10.616;2024-02-26T15:05:45;2.05;;;2.05;;
19560;SDS011;9927;47.792;10.616;2024-02-26T15:08:16;3.83;;;2.50;;
19560;SDS011;9927;47.792;10.616;2024-02-26T15:10:44;2.85;;;2.55;;
19560;SDS011;9927;47.792;10.616;2024-02-26T15:13:15;2.60;;;2.50;;
19560;SDS011;9927;47.792;10.616;2024-02-26T15:15:44;4.65;;;2.80;;
19560;SDS011;9927;47.792;10.616;2024-02-26T15:18:12;2.15;;;2.10;;
19560;SDS011;9927;47.792;10.616;2024-02-26T15:20:44;2.45;;;2.35;;
19560;SDS011;9927;47.792;10.616;2024-02-26T15:23:12;2.30;;;2.20;;
19560;SDS011;9927;47.792;10.616;2024-02-26T15:25:39;2.45;;;2.30;;
19560;SDS011;9927;47.792;10.616;2024-02-26T15:28:08;2.45;;;2.40;;
19560;SDS011;9927;47.792;10.616;2024-02-26T15:30:40;2.20;;;2.20;;
19560;SDS011;9927;47.792;10.616;2024-02-26T15:33:08;2.20;;;2.20;;
19560;SDS011;9927;47.792;10.616;2024-02-26T15:35:36;2.28;;;2.28;;
19560;SDS011;9927;47.792;10.616;2024-02-26T15:38:04;2.88;;;2.67;;
19560;SDS011;9927;47.792;10.616;2024-02-26T15:40:31;2.70;;;2.50;;
19560;SDS011;9927;47.792;10.616;2024-02-26T15:42:58;7.72;;;7.18;;
19560;SDS011;9927;47.792;10.616;2024-02-26T15:45:26;7.60;;;7.10;;
19560;SDS011;9927;47.792;10.616;2024-02-26T15:47:59;3.92;;;3.80;;
19560;SDS011;9927;47.792;10.616;2024-02-26T15:50:27;4.55;;;4.25;;
19560;SDS011;9927;47.792;10.616;2024-02-26T15:52:54;3.88;;;3.65;;
19560;SDS011;9927;47.792;10.616;2024-02-26T15:55:22;3.10;;;3.00;;
19560;SDS011;9927;47.792;10.616;2024-02-26T15:57:49;3.55;;;3.45;;
19560;SDS011;9927;47.792;10.616;2024-02-26T16:00:16;3.92;;;3.67;;
19560;SDS011;9927;47.792;10.616;2024-02-26T16:02:46;2.88;;;2.78;;
19560;SDS011;9927;47.792;10.616;2024-02-26T16:05:14;2.97;;;2.97;;
19560;SDS011;9927;47.792;10.616;2024-02-26T16:07:44;3.10;;;2.90;;
19560;SDS011;9927;47.792;10.616;2024-02-26T16:10:19;2.40;;;2.30;;
19560;SDS011;9927;47.792;10.616;2024-02-26T16:12:48;2.90;;;2.70;;
19560;SDS011;9927;47.792;10.616;2024-02-26T16:15:20;2.70;;;2.70;;
19560;SDS011;9927;47.792;10.616;2024-02-26T16:17:49;2.60;;;2.60;;
19560;SDS011;9927;47.792;10.616;2024-02-26T16:20:19;2.90;;;2.70;;
19560;SDS011;9927;47.792;10.616;2024-02-26T16:22:48;2.70;;;2.63;;
19560;SDS011;9927;47.792;10.616;2024-02-26T16:25:16;3.28;;;3.17;;
19560;SDS011;9927;47.792;10.616;2024-02-26T16:27:44;3.40;;;3.30;;
19560;SDS011;9927;47.792;10.616;2024-02-26T16:30:12;2.80;;;2.70;;
19560;SDS011;9927;47.792;10.616;2024-02-26T16:32:40;2.67;;;2.67;;
19560;SDS011;9927;47.792;10.616;2024-02-26T16:35:08;3.10;;;2.97;;
19560;SDS011;9927;47.792;10.616;2024-02-26T16:37:40;2.83;;;2.75;;
19560;SDS011;9927;47.792;10.616;2024-02-26T16:40:07;3.40;;;3.30;;
19560;SDS011;9927;47.792;10.616;2024-02-26T16:42:40;3.00;;;3.00;;
19560;SDS011;9927;47.792;10.616;2024-02-26T16:45:08;3.55;;;3.45;;
19560;SDS011;9927;47.792;10.616;2024-02-26T16:47:35;12.70;;;9.40;;
19560;SDS011;9927;47.792;10.616;2024-02-26T16:50:03;10.05;;;8.55;;
19560;SDS011;9927;47.792;10.616;2024-02-26T16:52:33;7.93;;;6.75;;
19560;SDS011;9927;47.792;10.616;2024-02-26T16:55:00;6.65;;;6.22;;
19560;SDS011;9927;47.792;10.616;2024-02-26T16:57:32;12.75;;;11.35;;
19560;SDS011;9927;47.792;10.616;2024-02-26T16:59:59;10.57;;;9.60;;
19560;SDS011;9927;47.792;10.616;2024-02-26T17:02:27;6.60;;;6.00;;
19560;SDS011;9927;47.792;10.616;2024-02-26T17:04:54;8.57;;;6.60;;
19560;SDS011;9927;47.792;10.616;2024-02-26T17:07:21;10.68;;;8.05;;
19560;SDS011;9927;47.792;10.616;2024-02-26T17:09:51;9.63;;;7.45;;
19560;SDS011;9927;47.792;10.616;2024-02-26T17:12:19;12.18;;;8.82;;
19560;SDS011;9927;47.792;10.616;2024-02-26T17:14:48;10.53;;;7.90;;
19560;SDS011;9927;47.792;10.616;2024-02-26T17:17:17;21.63;;;13.23;;
19560;SDS011;9927;47.792;10.616;2024-02-26T17:19:45;12.77;;;9.25;;
19560;SDS011;9927;47.792;10.616;2024-02-26T17:22:12;12.55;;;9.15;;
19560;SDS011;9927;47.792;10.616;2024-02-26T17:24:40;8.97;;;8.17;;
19560;SDS011;9927;47.792;10.616;2024-02-26T17:27:07;7.57;;;6.97;;
19560;SDS011;9927;47.792;10.616;2024-02-26T17:29:35;8.32;;;7.53;;
19560;SDS011;9927;47.792;10.616;2024-02-26T17:32:03;36.30;;;17.42;;
19560;SDS011;9927;47.792;10.616;2024-02-26T17:34:36;46.03;;;21.88;;
19560;SDS011;9927;47.792;10.616;2024-02-26T17:37:05;41.95;;;20.30;;
19560;SDS011;9927;47.792;10.616;2024-02-26T17:39:32;23.52;;;13.10;;
19560;SDS011;9927;47.792;10.616;2024-02-26T17:41:59;14.65;;;10.32;;
19560;SDS011;9927;47.792;10.616;2024-02-26T17:44:34;21.10;;;13.38;;
19560;SDS011;9927;47.792;10.616;2024-02-26T17:47:02;21.52;;;13.48;;
19560;SDS011;9927;47.792;10.616;2024-02-26T17:49:30;5.00;;;4.70;;
19560;SDS011;9927;47.792;10.616;2024-02-26T17:51:57;4.50;;;4.30;;
19560;SDS011;9927;47.792;10.616;2024-02-26T17:54:25;4.90;;;4.65;;
19560;SDS011;9927;47.792;10.616;2024-02-26T17:56:54;5.80;;;5.50;;
19560;SDS011;9927;47.792;10.616;2024-02-26T17:59:22;5.27;;;4.90;;
19560;SDS011;9927;47.792;10.616;2024-02-26T18:01:49;5.30;;;4.90;;
19560;SDS011;9927;47.792;10.616;2024-02-26T18:04:16;4.75;;;4.45;;
19560;SDS011;9927;47.792;10.616;2024-02-26T18:06:44;6.72;;;6.15;;
19560;SDS011;9927;47.792;10.616;2024-02-26T18:09:12;8.02;;;7.28;;
19560;SDS011;9927;47.792;10.616;2024-02-26T18:11:44;14.10;;;10.18;;
19560;SDS011;9927;47.792;10.616;2024-02-26T18:14:12;19.08;;;11.30;;
19560;SDS011;9927;47.792;10.616;2024-02-26T18:16:39;19.98;;;12.55;;
19560;SDS011;9927;47.792;10.616;2024-02-26T18:19:06;23.40;;;14.93;;
19560;SDS011;9927;47.792;10.616;2024-02-26T18:21:34;26.43;;;15.77;;
19560;SDS011;9927;47.792;10.616;2024-02-26T18:24:01;29.23;;;16.55;;
19560;SDS011;9927;47.792;10.616;2024-02-26T18:26:29;18.27;;;11.60;;
19560;SDS011;9927;47.792;10.616;2024-02-26T18:28:56;22.52;;;12.27;;
19560;SDS011;9927;47.792;10.616;2024-02-26T18:31:24;19.33;;;10.70;;
19560;SDS011;9927;47.792;10.616;2024-02-26T18:33:51;22.10;;;11.40;;
19560;SDS011;9927;47.792;10.616;2024-02-26T18:36:18;19.43;;;11.00;;
19560;SDS011;9927;47.792;10.616;2024-02-26T18:38:52;11.93;;;8.43;;
19560;SDS011;9927;47.792;10.616;2024-02-26T18:41:20;18.45;;;12.25;;
19560;SDS011;9927;47.792;10.616;2024-02-26T18:43:48;10.00;;;8.68;;
19560;SDS011;9927;47.792;10.616;2024-02-26T18:46:16;8.27;;;6.80;;
19560;SDS011;9927;47.792;10.616;2024-02-26T18:48:44;10.57;;;9.63;;
19560;SDS011;9927;47.792;10.616;2024-02-26T18:51:11;8.50;;;7.80;;
19560;SDS011;9927;47.792;10.616;2024-02-26T18:53:39;9.73;;;8.73;;
19560;SDS011;9927;47.792;10.616;2024-02-26T18:56:07;10.63;;;9.73;;
19560;SDS011;9927;47.792;10.616;2024-02-26T18:58:35;15.18;;;13.57;;
19560;SDS011;9927;47.792;10.616;2024-02-26T19:01:03;17.53;;;15.03;;
19560;SDS011;9927;47.792;10.616;2024-02-26T19:03:30;13.70;;;11.82;;
19560;SDS011;9927;47.792;10.616;2024-02-26T19:05:58;13.05;;;11.70;;
19560;SDS011;9927;47.792;10.616;2024-02-26T19:08:25;10.90;;;8.80;;